createdAt,value
2019-05-07T00:01:19.725Z,9.30
2019-05-07T00:03:49.117Z,9.40
2019-05-07T00:06:18.288Z,9.50
2019-05-07T00:08:47.430Z,9.50
2019-05-07T00:11:16.637Z,9.40
2019-05-07T00:13:46.053Z,9.40
2019-05-07T00:16:15.471Z,9.40
2019-05-07T00:18:44.612Z,9.40
2019-05-07T00:21:13.729Z,9.40
2019-05-07T00:23:43.336Z,9.40
2019-05-07T00:26:13.380Z,9.30
2019-05-07T00:28:43.389Z,9.30
2019-05-07T00:31:13.318Z,9.30
2019-05-07T00:33:43.402Z,9.30
2019-05-07T00:36:38.108Z,9.30
2019-05-07T00:39:25.331Z,9.40
2019-05-07T00:42:28.530Z,9.10
2019-05-07T00:45:21.624Z,9.00
2019-05-07T00:47:34.253Z,9.00
2019-05-07T00:50:08.379Z,8.90
2019-05-07T00:52:37.726Z,8.80
2019-05-07T00:55:06.890Z,8.70
2019-05-07T00:57:35.991Z,8.80
2019-05-07T01:00:05.642Z,9.00
2019-05-07T01:02:34.750Z,9.00
2019-05-07T01:05:03.902Z,8.90
2019-05-07T01:07:33.306Z,9.00
2019-05-07T01:10:02.967Z,8.90
2019-05-07T01:12:32.871Z,8.90
2019-05-07T01:15:02.915Z,9.00
2019-05-07T01:17:33.518Z,9.10
2019-05-07T01:20:03.110Z,9.10
2019-05-07T01:22:33.020Z,9.10
2019-05-07T01:25:02.963Z,9.10
2019-05-07T01:27:32.282Z,9.00
2019-05-07T01:30:02.665Z,9.00
2019-05-07T01:32:38.166Z,9.00
2019-05-07T01:35:13.687Z,9.10
2019-05-07T01:37:42.787Z,9.20
2019-05-07T01:40:12.336Z,9.20
2019-05-07T01:42:42.321Z,9.20
2019-05-07T01:45:13.050Z,9.20
2019-05-07T01:47:42.609Z,9.30
2019-05-07T01:50:13.357Z,9.20
2019-05-07T01:52:42.801Z,9.20
2019-05-07T01:55:12.939Z,9.20
2019-05-07T01:57:42.570Z,9.10
2019-05-07T02:00:13.059Z,9.10
2019-05-07T02:02:52.040Z,9.00
2019-05-07T02:05:55.326Z,9.00
2019-05-07T02:09:02.360Z,9.00
2019-05-07T02:11:42.347Z,8.90
2019-05-07T02:14:13.474Z,8.80
2019-05-07T02:16:42.413Z,8.90
2019-05-07T02:19:12.704Z,8.90
2019-05-07T02:21:42.471Z,8.80
2019-05-07T02:24:12.572Z,8.80
2019-05-07T02:26:42.661Z,8.90
2019-05-07T02:29:12.384Z,8.90
2019-05-07T02:31:44.161Z,8.80
2019-05-07T02:34:14.103Z,8.80
2019-05-07T02:36:43.610Z,8.70
2019-05-07T02:39:19.522Z,8.70
2019-05-07T02:41:48.904Z,8.60
2019-05-07T02:44:17.985Z,8.60
2019-05-07T02:46:55.635Z,8.50
2019-05-07T02:49:39.363Z,8.60
2019-05-07T02:52:18.402Z,8.60
2019-05-07T02:55:04.027Z,8.60
2019-05-07T02:57:33.906Z,8.60
2019-05-07T03:00:04.763Z,8.70
2019-05-07T03:02:34.314Z,8.80
2019-05-07T03:05:05.151Z,8.80
2019-05-07T03:07:34.547Z,8.80
2019-05-07T03:10:03.995Z,8.70
2019-05-07T03:12:33.741Z,8.70
2019-05-07T03:15:04.485Z,8.70
2019-05-07T03:17:34.016Z,8.70
2019-05-07T03:20:04.774Z,8.70
2019-05-07T03:22:34.075Z,8.70
2019-05-07T03:25:09.363Z,8.60
2019-05-07T03:27:38.546Z,8.70
2019-05-07T03:30:36.015Z,8.60
2019-05-07T03:33:26.205Z,8.70
2019-05-07T03:35:56.582Z,8.70
2019-05-07T03:38:26.234Z,8.60
2019-05-07T03:40:55.323Z,8.60
2019-05-07T03:43:26.553Z,8.60
2019-05-07T03:46:08.522Z,8.70
2019-05-07T03:48:38.703Z,8.70
2019-05-07T03:51:08.219Z,8.60
2019-05-07T03:53:39.413Z,8.60
2019-05-07T03:56:08.532Z,8.60
2019-05-07T03:58:37.907Z,8.70
2019-05-07T04:01:07.095Z,8.70
2019-05-07T04:03:36.205Z,8.60
2019-05-07T04:06:05.497Z,8.60
2019-05-07T04:08:34.612Z,8.60
2019-05-07T04:11:04.180Z,8.60
2019-05-07T04:13:33.991Z,8.60
2019-05-07T04:16:04.283Z,8.60
2019-05-07T04:18:34.186Z,8.70
2019-05-07T04:21:04.261Z,8.60
2019-05-07T04:23:34.238Z,8.60
2019-05-07T04:26:25.915Z,8.70
2019-05-07T04:29:00.239Z,8.70
2019-05-07T04:31:34.245Z,8.70
2019-05-07T04:34:07.376Z,8.70
2019-05-07T04:36:43.706Z,8.50
2019-05-07T04:39:13.255Z,8.60
2019-05-07T04:41:43.436Z,8.60
2019-05-07T04:44:14.067Z,8.60
2019-05-07T04:46:47.714Z,8.70
2019-05-07T04:49:14.468Z,8.70
2019-05-07T04:51:59.491Z,8.80
2019-05-07T04:54:28.913Z,8.80
2019-05-07T04:56:58.082Z,8.80
2019-05-07T04:59:27.162Z,8.70
2019-05-07T05:02:04.073Z,8.60
2019-05-07T05:04:34.766Z,8.50
2019-05-07T05:07:04.321Z,8.50
2019-05-07T05:09:33.425Z,8.50
2019-05-07T05:12:02.890Z,8.40
2019-05-07T05:14:33.740Z,8.50
2019-05-07T05:17:03.260Z,8.40
2019-05-07T05:19:32.490Z,8.30
2019-05-07T05:22:15.994Z,8.40
2019-05-07T05:24:47.594Z,8.40
2019-05-07T05:27:16.730Z,8.40
2019-05-07T05:29:45.826Z,8.40
2019-05-07T05:32:15.031Z,8.40
2019-05-07T05:34:44.154Z,8.40
2019-05-07T05:37:13.243Z,8.40
2019-05-07T05:39:42.795Z,8.60
2019-05-07T05:42:34.069Z,8.60
2019-05-07T05:45:03.291Z,8.60
2019-05-07T05:47:32.990Z,8.80
2019-05-07T05:50:03.445Z,8.80
2019-05-07T05:52:52.092Z,8.70
2019-05-07T05:55:22.672Z,8.70
2019-05-07T05:58:06.224Z,8.80
2019-05-07T06:01:09.403Z,8.90
2019-05-07T06:03:53.708Z,8.90
2019-05-07T06:06:53.980Z,9.00
2019-05-07T06:09:29.998Z,9.00
2019-05-07T06:12:17.967Z,9.10
2019-05-07T06:14:56.987Z,9.10
2019-05-07T06:17:44.350Z,9.20
2019-05-07T06:20:33.324Z,9.20
2019-05-07T06:23:27.632Z,9.20
2019-05-07T06:25:56.986Z,9.30
2019-05-07T06:28:26.354Z,9.30
2019-05-07T06:30:56.040Z,9.30
2019-05-07T06:33:25.112Z,9.30
2019-05-07T06:35:54.226Z,9.40
2019-05-07T06:38:24.584Z,9.50
2019-05-07T06:41:04.610Z,9.60
2019-05-07T06:43:44.817Z,9.60
2019-05-07T06:46:14.187Z,9.60
2019-05-07T06:48:46.134Z,9.70
2019-05-07T06:51:15.978Z,9.80
2019-05-07T06:53:45.457Z,10.00
2019-05-07T06:56:14.603Z,10.10
2019-05-07T06:58:58.859Z,10.20
2019-05-07T07:01:45.870Z,10.30
2019-05-07T07:04:35.774Z,10.40
2019-05-07T07:07:31.005Z,10.50
2019-05-07T07:10:13.911Z,10.60
2019-05-07T07:12:43.126Z,10.70
2019-05-07T07:15:12.383Z,10.80
2019-05-07T07:17:42.041Z,11.00
2019-05-07T07:20:12.740Z,11.20
2019-05-07T07:22:42.678Z,11.40
2019-05-07T07:25:11.959Z,11.70
2019-05-07T07:27:42.973Z,11.80
2019-05-07T07:30:28.050Z,11.80
2019-05-07T07:32:58.227Z,11.90
2019-05-07T07:35:27.338Z,12.00
2019-05-07T07:37:56.442Z,12.10
2019-05-07T07:40:44.806Z,12.10
2019-05-07T07:43:13.995Z,12.10
2019-05-07T07:45:43.198Z,12.10
2019-05-07T07:48:13.153Z,12.00
2019-05-07T07:50:42.491Z,12.00
2019-05-07T07:53:12.995Z,11.90
2019-05-07T07:56:02.572Z,11.90
2019-05-07T07:58:52.432Z,11.70
2019-05-07T08:01:28.710Z,11.70
2019-05-07T08:03:57.803Z,11.70
2019-05-07T08:06:29.222Z,11.80
2019-05-07T08:08:58.336Z,11.80
2019-05-07T08:11:27.767Z,11.80
2019-05-07T08:13:56.962Z,11.80
2019-05-07T08:16:26.330Z,11.80
2019-05-07T08:18:55.439Z,11.90
2019-05-07T08:21:24.847Z,11.60
2019-05-07T08:23:54.222Z,11.40
2019-05-07T08:26:23.343Z,11.60
2019-05-07T08:28:52.498Z,11.80
2019-05-07T08:31:36.024Z,11.80
2019-05-07T08:34:16.487Z,11.90
2019-05-07T08:36:45.598Z,12.00
2019-05-07T08:39:14.729Z,12.20
2019-05-07T08:41:44.078Z,12.30
2019-05-07T08:44:17.398Z,12.50
2019-05-07T08:47:14.588Z,12.70
2019-05-07T08:49:44.442Z,12.80
2019-05-07T08:52:13.564Z,12.80
2019-05-07T08:54:42.924Z,12.60
2019-05-07T08:57:12.470Z,12.90
2019-05-07T08:59:43.750Z,12.90
2019-05-07T09:02:12.870Z,13.00
2019-05-07T09:04:42.053Z,13.20
2019-05-07T09:07:13.073Z,13.20
2019-05-07T09:09:42.840Z,13.20
2019-05-07T09:12:12.703Z,13.10
2019-05-07T09:14:42.566Z,13.10
2019-05-07T09:17:12.746Z,13.20
2019-05-07T09:19:50.653Z,13.30
2019-05-07T09:22:13.234Z,13.30
2019-05-07T09:24:42.679Z,13.30
2019-05-07T09:27:22.154Z,13.40
2019-05-07T09:30:19.262Z,13.20
2019-05-07T09:32:53.395Z,13.30
2019-05-07T09:35:53.722Z,13.10
2019-05-07T09:38:23.003Z,13.20
2019-05-07T09:40:52.550Z,13.20
2019-05-07T09:43:22.310Z,13.20
2019-05-07T09:45:52.330Z,13.20
2019-05-07T09:48:22.119Z,13.20
2019-05-07T09:50:53.030Z,13.30
2019-05-07T09:53:22.853Z,13.30
2019-05-07T09:55:52.056Z,13.50
2019-05-07T09:58:35.290Z,13.70
2019-05-07T10:00:52.312Z,13.80
2019-05-07T10:03:22.779Z,13.80
2019-05-07T10:05:52.113Z,14.00
2019-05-07T10:08:21.751Z,13.80
2019-05-07T10:10:53.148Z,14.10
2019-05-07T10:13:35.398Z,14.20
2019-05-07T10:16:07.573Z,14.20
2019-05-07T10:18:35.358Z,14.20
2019-05-07T10:21:04.575Z,14.40
2019-05-07T10:23:33.681Z,14.20
2019-05-07T10:26:03.466Z,14.00
2019-05-07T10:28:32.591Z,14.00
2019-05-07T10:31:01.775Z,14.10
2019-05-07T10:33:31.995Z,14.20
2019-05-07T10:36:02.149Z,14.20
2019-05-07T10:38:31.330Z,14.30
2019-05-07T10:41:02.667Z,14.20
2019-05-07T10:43:32.705Z,14.20
2019-05-07T10:46:31.944Z,14.30
2019-05-07T10:49:19.830Z,14.40
2019-05-07T10:51:51.681Z,14.60
2019-05-07T10:54:21.860Z,14.80
2019-05-07T10:56:52.416Z,15.00
2019-05-07T10:59:22.505Z,15.20
2019-05-07T11:02:04.504Z,15.50
2019-05-07T11:04:42.662Z,15.70
2019-05-07T11:07:04.736Z,15.80
2019-05-07T11:09:34.107Z,16.00
2019-05-07T11:12:03.505Z,16.00
2019-05-07T11:14:32.599Z,16.10
2019-05-07T11:17:12.175Z,16.20
2019-05-07T11:19:41.719Z,16.10
2019-05-07T11:22:11.647Z,16.00
2019-05-07T11:24:42.714Z,15.90
2019-05-07T11:27:12.092Z,15.60
2019-05-07T11:29:42.934Z,15.40
2019-05-07T11:32:12.405Z,15.30
2019-05-07T11:34:44.495Z,15.20
2019-05-07T11:37:13.879Z,15.10
2019-05-07T11:39:42.989Z,14.80
2019-05-07T11:42:39.956Z,14.80
2019-05-07T11:45:12.794Z,14.70
2019-05-07T11:47:41.881Z,14.70
2019-05-07T11:50:22.598Z,14.80
2019-05-07T11:52:57.062Z,14.80
2019-05-07T11:55:29.353Z,14.80
2019-05-07T11:57:58.467Z,14.80
2019-05-07T12:00:35.395Z,14.70
2019-05-07T12:03:05.184Z,14.80
2019-05-07T12:05:34.272Z,14.80
2019-05-07T12:08:03.386Z,14.80
2019-05-07T12:10:32.901Z,14.90
2019-05-07T12:13:02.530Z,15.00
2019-05-07T12:15:32.418Z,15.00
2019-05-07T12:18:03.029Z,15.00
2019-05-07T12:20:32.614Z,14.90
2019-05-07T12:23:02.798Z,14.90
2019-05-07T12:25:32.474Z,15.00
2019-05-07T12:28:02.378Z,15.00
2019-05-07T12:30:44.510Z,14.90
2019-05-07T12:33:32.473Z,14.80
2019-05-07T12:36:02.091Z,14.70
2019-05-07T12:38:32.346Z,14.70
2019-05-07T12:41:03.183Z,14.70
2019-05-07T12:43:32.546Z,14.70
2019-05-07T12:46:02.842Z,14.70
2019-05-07T12:48:32.377Z,14.70
2019-05-07T12:51:01.555Z,14.60
2019-05-07T12:53:42.444Z,14.60
2019-05-07T12:56:11.709Z,14.70
2019-05-07T12:58:40.802Z,14.70
2019-05-07T13:01:17.473Z,14.70
2019-05-07T13:04:05.390Z,14.70
2019-05-07T13:06:38.084Z,14.60
2019-05-07T13:09:07.437Z,14.60
2019-05-07T13:11:36.531Z,14.50
2019-05-07T13:14:05.928Z,14.50
2019-05-07T13:16:35.010Z,14.50
2019-05-07T13:19:04.246Z,14.50
2019-05-07T13:21:46.417Z,14.40
2019-05-07T13:24:04.452Z,14.30
2019-05-07T13:26:33.615Z,14.30
2019-05-07T13:29:02.810Z,14.30
2019-05-07T13:31:34.415Z,14.30
2019-05-07T13:34:03.647Z,14.30
2019-05-07T13:36:35.722Z,14.40
2019-05-07T13:39:19.321Z,14.40
2019-05-07T13:41:56.588Z,14.40
2019-05-07T13:44:47.717Z,14.50
2019-05-07T13:47:28.279Z,14.50
2019-05-07T13:49:58.057Z,14.50
2019-05-07T13:52:27.152Z,14.50
2019-05-07T13:54:56.353Z,14.50
2019-05-07T13:57:25.459Z,14.50
2019-05-07T13:59:54.927Z,14.50
2019-05-07T14:02:27.054Z,14.50
2019-05-07T14:04:56.178Z,14.60
2019-05-07T14:07:27.015Z,14.60
2019-05-07T14:09:56.138Z,14.60
2019-05-07T14:12:25.242Z,14.60
2019-05-07T14:14:54.635Z,14.60
2019-05-07T14:17:24.038Z,14.60
2019-05-07T14:19:53.288Z,14.70
2019-05-07T14:22:22.860Z,14.70
2019-05-07T14:24:52.965Z,14.70
2019-05-07T14:27:22.687Z,14.70
2019-05-07T14:29:52.207Z,14.70
2019-05-07T14:32:42.054Z,14.70
2019-05-07T14:35:34.637Z,14.80
2019-05-07T14:38:22.705Z,14.80
2019-05-07T14:40:52.071Z,14.80
2019-05-07T14:43:27.990Z,14.80
2019-05-07T14:45:57.184Z,14.80
2019-05-07T14:48:26.400Z,14.80
2019-05-07T14:50:55.509Z,14.70
2019-05-07T14:53:24.858Z,14.70
2019-05-07T14:55:53.975Z,14.70
2019-05-07T14:58:23.323Z,14.60
2019-05-07T15:00:52.451Z,14.60
2019-05-07T15:03:22.844Z,14.60
2019-05-07T15:05:52.562Z,14.50
2019-05-07T15:08:22.035Z,14.50
2019-05-07T15:10:52.502Z,14.50
2019-05-07T15:13:21.944Z,14.50
2019-05-07T15:15:52.520Z,14.50
2019-05-07T15:18:42.377Z,14.50
2019-05-07T15:21:12.388Z,14.50
2019-05-07T15:23:42.544Z,14.50
2019-05-07T15:26:12.789Z,14.50
2019-05-07T15:28:44.087Z,14.50
2019-05-07T15:31:17.342Z,14.50
2019-05-07T15:33:46.483Z,14.50
2019-05-07T15:36:15.626Z,14.40
2019-05-07T15:38:44.771Z,14.40
2019-05-07T15:41:13.909Z,14.50
2019-05-07T15:43:46.002Z,14.50
2019-05-07T15:46:14.031Z,14.50
2019-05-07T15:48:43.156Z,14.50
2019-05-07T15:51:12.297Z,14.50
2019-05-07T15:53:46.441Z,14.50
2019-05-07T15:56:15.832Z,14.40
2019-05-07T15:58:44.962Z,14.40
2019-05-07T16:01:14.277Z,14.40
2019-05-07T16:03:44.266Z,14.40
2019-05-07T16:06:13.412Z,14.30
2019-05-07T16:09:02.441Z,14.30
2019-05-07T16:11:33.271Z,14.30
2019-05-07T16:14:22.541Z,14.30
2019-05-07T16:16:51.964Z,14.30
2019-05-07T16:19:26.216Z,14.20
2019-05-07T16:21:56.178Z,14.30
2019-05-07T16:24:25.735Z,14.30
2019-05-07T16:26:55.515Z,14.30
2019-05-07T16:29:24.625Z,14.30
2019-05-07T16:31:54.108Z,14.30
2019-05-07T16:34:24.585Z,14.30
2019-05-07T16:36:54.143Z,14.30
2019-05-07T16:39:23.255Z,14.30
2019-05-07T16:41:52.745Z,14.30
2019-05-07T16:44:22.577Z,14.30
2019-05-07T16:46:53.489Z,14.30
2019-05-07T16:49:23.011Z,14.30
2019-05-07T16:51:52.496Z,14.20
2019-05-07T16:54:22.003Z,14.20
2019-05-07T16:57:08.815Z,14.30
2019-05-07T16:59:37.911Z,14.20
2019-05-07T17:02:13.190Z,14.20
2019-05-07T17:05:03.092Z,14.20
2019-05-07T17:07:32.309Z,14.20
2019-05-07T17:10:02.678Z,14.20
2019-05-07T17:12:32.527Z,14.20
2019-05-07T17:15:03.703Z,14.10
2019-05-07T17:17:32.845Z,14.20
2019-05-07T17:20:02.834Z,14.10
2019-05-07T17:22:33.141Z,14.10
2019-05-07T17:25:22.715Z,14.10
2019-05-07T17:27:52.152Z,14.10
2019-05-07T17:30:21.540Z,14.10
2019-05-07T17:32:52.467Z,14.20
2019-05-07T17:35:22.435Z,14.20
2019-05-07T17:37:51.947Z,14.30
2019-05-07T17:40:22.613Z,14.20
2019-05-07T17:42:52.549Z,14.20
2019-05-07T17:45:22.753Z,14.20
2019-05-07T17:47:52.443Z,14.20
2019-05-07T17:50:25.486Z,14.20
2019-05-07T17:52:54.782Z,14.30
2019-05-07T17:55:24.167Z,14.30
2019-05-07T17:57:53.401Z,14.30
2019-05-07T18:00:22.615Z,14.30
2019-05-07T18:03:12.998Z,14.30
2019-05-07T18:05:42.437Z,14.30
2019-05-07T18:08:12.640Z,14.30
2019-05-07T18:10:42.404Z,14.20
2019-05-07T18:13:11.919Z,14.20
2019-05-07T18:15:42.800Z,14.20
2019-05-07T18:18:12.847Z,14.10
2019-05-07T18:20:42.337Z,14.10
2019-05-07T18:23:16.686Z,14.10
2019-05-07T18:25:42.889Z,14.10
2019-05-07T18:28:13.006Z,14.10
2019-05-07T18:30:42.222Z,14.10
2019-05-07T18:33:39.334Z,14.10
2019-05-07T18:36:08.631Z,14.20
2019-05-07T18:38:37.751Z,14.10
2019-05-07T18:41:07.491Z,14.10
2019-05-07T18:43:36.710Z,14.10
2019-05-07T18:46:05.798Z,14.00
2019-05-07T18:48:34.894Z,14.00
2019-05-07T18:51:04.670Z,14.00
2019-05-07T18:53:33.791Z,13.90
2019-05-07T18:56:02.876Z,13.90
2019-05-07T18:58:32.045Z,13.90
2019-05-07T19:01:04.755Z,13.90
2019-05-07T19:03:33.935Z,13.90
2019-05-07T19:06:03.196Z,13.90
2019-05-07T19:08:33.219Z,13.90
2019-05-07T19:11:05.759Z,13.80
2019-05-07T19:13:34.377Z,13.80
2019-05-07T19:16:03.779Z,13.70
2019-05-07T19:18:32.903Z,13.60
2019-05-07T19:21:02.423Z,13.60
2019-05-07T19:23:33.051Z,13.60
2019-05-07T19:26:02.514Z,13.60
2019-05-07T19:28:33.026Z,13.50
2019-05-07T19:31:03.211Z,13.40
2019-05-07T19:33:32.955Z,13.30
2019-05-07T19:36:02.227Z,13.20
2019-05-07T19:38:32.373Z,13.20
2019-05-07T19:41:02.198Z,13.20
2019-05-07T19:43:32.522Z,13.00
2019-05-07T19:46:02.865Z,13.00
2019-05-07T19:48:32.515Z,12.90
2019-05-07T19:51:03.622Z,12.90
2019-05-07T19:53:33.204Z,12.90
2019-05-07T19:56:06.378Z,12.90
2019-05-07T19:58:35.458Z,12.90
2019-05-07T20:01:06.271Z,12.90
2019-05-07T20:03:35.406Z,12.90
2019-05-07T20:06:04.711Z,12.90
2019-05-07T20:08:33.869Z,12.90
2019-05-07T20:11:08.628Z,12.90
2019-05-07T20:13:40.667Z,12.90
2019-05-07T20:16:12.900Z,13.00
2019-05-07T20:18:42.875Z,12.90
2019-05-07T20:21:12.647Z,12.90
2019-05-07T20:23:43.200Z,12.90
2019-05-07T20:26:12.832Z,12.90
2019-05-07T20:28:41.993Z,12.90
2019-05-07T20:31:12.253Z,12.90
2019-05-07T20:33:42.392Z,12.80
2019-05-07T20:36:11.690Z,12.90
2019-05-07T20:38:42.713Z,12.90
2019-05-07T20:41:12.934Z,12.90
2019-05-07T20:43:42.956Z,12.90
2019-05-07T20:46:12.470Z,13.00
2019-05-07T20:48:42.442Z,12.90
2019-05-07T20:51:12.572Z,12.90
2019-05-07T20:53:59.644Z,12.90
2019-05-07T20:56:32.327Z,12.90
2019-05-07T20:59:02.995Z,12.90
2019-05-07T21:01:33.862Z,12.90
2019-05-07T21:04:02.953Z,12.80
2019-05-07T21:06:32.749Z,12.80
2019-05-07T21:09:01.914Z,12.80
2019-05-07T21:11:32.357Z,12.80
2019-05-07T21:14:03.265Z,12.80
2019-05-07T21:16:33.053Z,12.80
2019-05-07T21:19:02.278Z,12.80
2019-05-07T21:21:32.699Z,12.80
2019-05-07T21:24:02.223Z,12.70
2019-05-07T21:26:32.708Z,12.70
2019-05-07T21:29:02.982Z,12.70
2019-05-07T21:31:32.417Z,12.60
2019-05-07T21:34:03.148Z,12.70
2019-05-07T21:36:32.624Z,12.60
2019-05-07T21:39:02.409Z,12.60
2019-05-07T21:41:33.508Z,12.50
2019-05-07T21:44:02.582Z,12.50
2019-05-07T21:46:32.968Z,12.40
2019-05-07T21:49:02.747Z,12.40
2019-05-07T21:51:32.072Z,12.40
2019-05-07T21:54:07.690Z,12.40
2019-05-07T21:56:54.590Z,12.30
2019-05-07T21:59:25.494Z,12.30
2019-05-07T22:02:02.154Z,12.20
2019-05-07T22:04:31.142Z,12.20
2019-05-07T22:07:02.768Z,12.00
2019-05-07T22:09:32.995Z,12.00
2019-05-07T22:12:03.696Z,11.90
2019-05-07T22:14:33.334Z,11.90
2019-05-07T22:17:03.409Z,11.90
2019-05-07T22:19:33.851Z,11.90
2019-05-07T22:22:03.122Z,11.90
2019-05-07T22:24:32.903Z,11.90
2019-05-07T22:27:04.293Z,11.90
2019-05-07T22:29:33.441Z,11.90
2019-05-07T22:32:22.404Z,11.80
2019-05-07T22:34:59.545Z,11.90
2019-05-07T22:37:28.683Z,11.90
2019-05-07T22:39:57.810Z,11.90
2019-05-07T22:42:27.390Z,11.80
2019-05-07T22:44:56.555Z,11.90
2019-05-07T22:47:25.948Z,11.80
2019-05-07T22:49:55.061Z,11.90
2019-05-07T22:52:24.193Z,11.90
2019-05-07T22:54:53.294Z,12.00
2019-05-07T22:57:37.987Z,12.00
2019-05-07T23:00:08.978Z,11.90
2019-05-07T23:02:38.106Z,11.70
2019-05-07T23:05:08.054Z,11.50
2019-05-07T23:07:37.402Z,11.60
2019-05-07T23:10:06.762Z,11.50
2019-05-07T23:12:35.855Z,11.50
2019-05-07T23:15:06.122Z,11.50
2019-05-07T23:17:35.246Z,11.50
2019-05-07T23:20:04.708Z,11.60
2019-05-07T23:22:33.834Z,11.70
2019-05-07T23:25:03.166Z,11.50
2019-05-07T23:27:32.638Z,11.30
2019-05-07T23:30:02.555Z,11.20
2019-05-07T23:32:32.906Z,11.20
2019-05-07T23:35:02.619Z,11.20
2019-05-07T23:37:33.144Z,11.30
2019-05-07T23:40:06.589Z,11.20
2019-05-07T23:42:37.418Z,11.00
2019-05-07T23:45:06.979Z,11.00
2019-05-07T23:47:36.378Z,11.00
2019-05-07T23:50:06.478Z,11.00
2019-05-07T23:52:35.859Z,11.10
2019-05-07T23:55:05.073Z,11.00
2019-05-07T23:57:34.176Z,11.00
